createdAt,value
2019-03-22T00:00:47.587Z,7.80
2019-03-22T00:01:47.677Z,8.10
2019-03-22T00:02:47.765Z,7.10
2019-03-22T00:03:47.853Z,8.40
2019-03-22T00:04:47.939Z,11.50
2019-03-22T00:05:48.029Z,8.60
2019-03-22T00:06:48.116Z,7.90
2019-03-22T00:07:48.772Z,6.90
2019-03-22T00:08:48.289Z,6.90
2019-03-22T00:09:48.376Z,7.00
2019-03-22T00:10:48.463Z,7.40
2019-03-22T00:11:48.553Z,8.30
2019-03-22T00:12:48.640Z,10.00
2019-03-22T00:13:48.728Z,6.50
2019-03-22T00:14:48.820Z,5.90
2019-03-22T00:15:48.926Z,6.50
2019-03-22T00:16:48.988Z,6.60
2019-03-22T00:17:49.147Z,7.20
2019-03-22T00:18:49.201Z,6.00
2019-03-22T00:21:31.837Z,5.70
2019-03-22T00:22:31.924Z,6.90
2019-03-22T00:23:32.011Z,8.10
2019-03-22T00:24:32.100Z,6.90
2019-03-22T00:25:32.189Z,5.80
2019-03-22T00:26:32.654Z,6.10
2019-03-22T00:27:32.386Z,5.40
2019-03-22T00:28:32.467Z,6.50
2019-03-22T00:29:32.558Z,5.90
2019-03-22T00:30:32.644Z,6.20
2019-03-22T00:31:32.732Z,6.80
2019-03-22T00:32:32.817Z,6.30
2019-03-22T00:33:32.910Z,6.80
2019-03-22T00:34:33.044Z,6.30
2019-03-22T00:35:33.083Z,6.80
2019-03-22T00:36:33.211Z,6.90
2019-03-22T00:37:34.887Z,7.10
2019-03-22T00:38:33.354Z,6.20
2019-03-22T00:39:33.455Z,8.20
2019-03-22T00:40:33.545Z,7.80
2019-03-22T00:41:33.635Z,8.30
2019-03-22T00:42:33.722Z,6.40
2019-03-22T00:43:33.811Z,6.10
2019-03-22T00:44:33.902Z,7.80
2019-03-22T00:45:33.988Z,6.60
2019-03-22T00:46:34.429Z,6.70
2019-03-22T00:47:34.136Z,6.70
2019-03-22T00:48:34.222Z,5.60
2019-03-22T00:49:34.312Z,7.50
2019-03-22T00:50:34.400Z,7.90
2019-03-22T00:51:34.489Z,8.90
2019-03-22T00:52:34.583Z,8.50
2019-03-22T00:53:34.674Z,6.80
2019-03-22T00:54:34.760Z,6.90
2019-03-22T00:55:34.852Z,10.60
2019-03-22T00:56:34.937Z,7.40
2019-03-22T00:57:35.110Z,9.00
2019-03-22T00:58:35.207Z,6.80
2019-03-22T00:59:35.315Z,6.30
2019-03-22T01:00:35.397Z,7.40
2019-03-22T01:01:35.486Z,7.40
2019-03-22T01:02:35.572Z,7.30
2019-03-22T01:03:35.662Z,7.40
2019-03-22T01:04:35.750Z,6.00
2019-03-22T01:05:35.839Z,7.70
2019-03-22T01:06:35.929Z,9.80
2019-03-22T01:07:36.014Z,5.60
2019-03-22T01:08:36.097Z,7.30
2019-03-22T01:09:36.233Z,7.30
2019-03-22T01:10:36.279Z,8.30
2019-03-22T01:11:36.359Z,7.00
2019-03-22T01:12:36.450Z,7.00
2019-03-22T01:13:36.532Z,8.00
2019-03-22T01:14:36.619Z,7.20
2019-03-22T01:15:36.707Z,6.50
2019-03-22T01:16:36.795Z,7.20
2019-03-22T01:17:36.884Z,7.80
2019-03-22T01:18:36.974Z,5.80
2019-03-22T01:19:37.062Z,7.30
2019-03-22T01:20:37.146Z,6.50
2019-03-22T01:21:37.241Z,7.20
2019-03-22T01:22:37.317Z,6.60
2019-03-22T01:23:37.407Z,7.10
2019-03-22T01:24:37.505Z,7.20
2019-03-22T01:25:37.583Z,6.60
2019-03-22T01:26:37.678Z,6.80
2019-03-22T01:27:40.668Z,7.30
2019-03-22T01:28:37.853Z,7.60
2019-03-22T01:29:37.938Z,7.40
2019-03-22T01:30:38.025Z,8.00
2019-03-22T01:31:38.113Z,8.10
2019-03-22T01:32:38.202Z,5.80
2019-03-22T01:33:38.301Z,6.50
2019-03-22T01:34:38.366Z,5.60
2019-03-22T01:35:38.458Z,6.90
2019-03-22T01:36:38.546Z,5.70
2019-03-22T01:37:38.634Z,6.40
2019-03-22T01:38:38.721Z,6.00
2019-03-22T01:39:38.808Z,6.40
2019-03-22T01:40:38.894Z,8.30
2019-03-22T01:41:38.986Z,6.40
2019-03-22T01:42:39.076Z,5.50
2019-03-22T01:43:39.163Z,6.40
2019-03-22T01:44:39.249Z,6.20
2019-03-22T01:45:39.344Z,7.40
2019-03-22T01:46:39.428Z,5.50
2019-03-22T01:47:39.517Z,10.50
2019-03-22T01:48:39.601Z,7.20
2019-03-22T01:49:39.686Z,7.40
2019-03-22T01:50:39.777Z,6.90
2019-03-22T01:51:39.878Z,6.10
2019-03-22T01:52:39.951Z,6.70
2019-03-22T01:53:40.039Z,8.20
2019-03-22T01:54:40.128Z,5.40
2019-03-22T01:55:40.281Z,7.30
2019-03-22T01:56:40.315Z,6.30
2019-03-22T01:57:51.979Z,6.40
2019-03-22T01:58:47.600Z,8.30
2019-03-22T01:59:40.589Z,8.30
2019-03-22T02:00:40.677Z,6.30
2019-03-22T02:01:40.766Z,6.50
2019-03-22T02:02:40.852Z,7.10
2019-03-22T02:03:40.953Z,7.30
2019-03-22T02:04:41.040Z,8.30
2019-03-22T02:05:41.131Z,8.00
2019-03-22T02:06:41.215Z,6.30
2019-03-22T02:07:41.303Z,9.10
2019-03-22T02:08:41.388Z,7.10
2019-03-22T02:09:41.477Z,6.60
2019-03-22T02:10:41.566Z,5.70
2019-03-22T02:11:41.653Z,5.60
2019-03-22T02:12:41.768Z,6.30
2019-03-22T02:13:41.871Z,8.10
2019-03-22T02:14:41.929Z,10.60
2019-03-22T02:15:42.020Z,6.00
2019-03-22T02:16:42.251Z,7.70
2019-03-22T02:17:42.300Z,7.20
2019-03-22T02:18:42.267Z,7.60
2019-03-22T02:19:42.358Z,6.20
2019-03-22T02:20:42.442Z,6.90
2019-03-22T02:21:42.534Z,6.90
2019-03-22T02:22:42.624Z,6.60
2019-03-22T02:23:42.707Z,9.70
2019-03-22T02:24:42.794Z,6.40
2019-03-22T02:25:42.882Z,7.80
2019-03-22T02:26:42.968Z,8.60
2019-03-22T02:27:43.056Z,5.90
2019-03-22T02:28:43.143Z,7.30
2019-03-22T02:29:44.472Z,9.10
2019-03-22T02:30:43.320Z,7.30
2019-03-22T02:31:43.407Z,6.90
2019-03-22T02:32:43.497Z,7.30
2019-03-22T02:33:43.583Z,7.10
2019-03-22T02:34:43.657Z,6.20
2019-03-22T02:35:43.787Z,6.00
2019-03-22T02:36:43.831Z,5.80
2019-03-22T02:37:43.919Z,6.30
2019-03-22T02:38:44.034Z,5.50
2019-03-22T02:39:44.255Z,6.50
2019-03-22T02:40:44.171Z,5.80
2019-03-22T02:41:44.282Z,5.50
2019-03-22T02:42:44.359Z,6.70
2019-03-22T02:43:44.526Z,6.30
2019-03-22T02:44:44.534Z,6.80
2019-03-22T02:45:44.621Z,5.20
2019-03-22T02:46:44.705Z,7.20
2019-03-22T02:47:44.796Z,7.40
2019-03-22T02:48:44.885Z,7.10
2019-03-22T02:49:44.981Z,8.70
2019-03-22T02:50:45.067Z,6.10
2019-03-22T02:51:45.135Z,7.20
2019-03-22T02:52:45.271Z,7.10
2019-03-22T02:53:45.346Z,6.70
2019-03-22T02:54:45.430Z,6.50
2019-03-22T02:55:45.538Z,7.30
2019-03-22T02:56:45.606Z,8.00
2019-03-22T02:57:45.704Z,6.70
2019-03-22T02:58:45.783Z,5.90
2019-03-22T02:59:45.889Z,8.10
2019-03-22T03:00:45.975Z,7.10
2019-03-22T03:01:46.065Z,6.90
2019-03-22T03:02:46.151Z,7.40
2019-03-22T03:03:46.247Z,5.70
2019-03-22T03:04:46.327Z,7.10
2019-03-22T03:05:46.407Z,5.50
2019-03-22T03:06:46.506Z,6.20
2019-03-22T03:07:46.623Z,5.10
2019-03-22T03:08:46.668Z,6.00
2019-03-22T03:09:46.766Z,6.30
2019-03-22T03:10:46.846Z,6.00
2019-03-22T03:11:46.937Z,7.50
2019-03-22T03:12:47.021Z,5.90
2019-03-22T03:13:47.105Z,6.40
2019-03-22T03:14:47.189Z,5.80
2019-03-22T03:15:47.281Z,6.60
2019-03-22T03:16:47.368Z,4.90
2019-03-22T03:17:47.459Z,6.40
2019-03-22T03:18:47.543Z,5.40
2019-03-22T03:19:47.635Z,5.60
2019-03-22T03:20:47.737Z,5.60
2019-03-22T03:21:47.840Z,6.20
2019-03-22T03:22:47.941Z,6.40
2019-03-22T03:23:48.019Z,5.40
2019-03-22T03:24:48.102Z,5.70
2019-03-22T03:25:48.190Z,6.90
2019-03-22T03:26:48.274Z,6.70
2019-03-22T03:27:48.377Z,5.50
2019-03-22T03:28:48.465Z,7.10
2019-03-22T03:29:48.541Z,5.90
2019-03-22T03:30:48.631Z,6.40
2019-03-22T03:31:48.719Z,6.40
2019-03-22T03:32:48.878Z,7.80
2019-03-22T03:33:48.891Z,5.80
2019-03-22T03:34:48.979Z,6.00
2019-03-22T03:35:49.064Z,6.20
2019-03-22T03:36:49.164Z,7.70
2019-03-22T03:37:49.251Z,6.40
2019-03-22T03:38:49.343Z,9.70
2019-03-22T03:39:49.428Z,5.40
2019-03-22T03:40:49.521Z,5.90
2019-03-22T03:41:49.602Z,6.50
2019-03-22T03:42:49.690Z,5.50
2019-03-22T03:43:49.841Z,6.20
2019-03-22T03:44:49.873Z,6.50
2019-03-22T03:45:49.960Z,6.20
2019-03-22T03:46:50.050Z,5.60
2019-03-22T03:47:50.150Z,5.20
2019-03-22T03:48:50.228Z,6.40
2019-03-22T03:49:50.317Z,7.60
2019-03-22T03:50:50.412Z,6.50
2019-03-22T03:51:50.485Z,6.80
2019-03-22T03:52:50.574Z,6.30
2019-03-22T03:53:50.670Z,5.90
2019-03-22T03:54:50.776Z,6.30
2019-03-22T03:55:50.861Z,5.80
2019-03-22T03:56:50.947Z,5.50
2019-03-22T03:57:51.045Z,6.90
2019-03-22T03:58:52.522Z,6.40
2019-03-22T03:59:51.208Z,6.80
2019-03-22T04:00:51.298Z,6.50
2019-03-22T04:01:51.385Z,5.80
2019-03-22T04:02:51.477Z,6.40
2019-03-22T04:03:51.561Z,7.80
2019-03-22T04:04:51.649Z,6.30
2019-03-22T04:05:51.750Z,7.50
2019-03-22T04:06:51.826Z,6.70
2019-03-22T04:07:51.902Z,5.80
2019-03-22T04:08:51.991Z,5.60
2019-03-22T04:09:52.077Z,6.30
2019-03-22T04:10:52.170Z,8.30
2019-03-22T04:11:52.255Z,7.50
2019-03-22T04:12:52.342Z,7.40
2019-03-22T04:13:52.432Z,7.40
2019-03-22T04:14:52.513Z,6.90
2019-03-22T04:15:52.599Z,8.30
2019-03-22T04:16:52.690Z,5.30
2019-03-22T04:17:52.782Z,5.20
2019-03-22T04:18:52.868Z,5.80
2019-03-22T04:19:52.956Z,7.40
2019-03-22T04:20:53.042Z,5.80
2019-03-22T04:21:53.156Z,7.80
2019-03-22T04:22:53.226Z,5.70
2019-03-22T04:23:53.304Z,5.70
2019-03-22T04:24:53.394Z,6.10
2019-03-22T04:25:53.492Z,7.50
2019-03-22T04:26:53.582Z,5.40
2019-03-22T04:27:53.658Z,5.50
2019-03-22T04:29:06.869Z,6.30
2019-03-22T04:29:53.842Z,6.90
2019-03-22T04:30:53.922Z,5.60
2019-03-22T04:31:54.008Z,6.10
2019-03-22T04:32:54.095Z,5.30
2019-03-22T04:33:54.190Z,8.40
2019-03-22T04:34:54.273Z,6.60
2019-03-22T04:35:54.393Z,9.60
2019-03-22T04:36:54.480Z,9.20
2019-03-22T04:37:54.571Z,6.20
2019-03-22T04:38:54.659Z,6.10
2019-03-22T04:39:54.742Z,6.20
2019-03-22T04:40:54.834Z,6.20
2019-03-22T04:41:54.922Z,6.40
2019-03-22T04:42:55.007Z,7.10
2019-03-22T04:43:55.129Z,6.20
2019-03-22T04:44:55.178Z,5.20
2019-03-22T04:45:55.269Z,5.90
2019-03-22T04:46:55.360Z,6.60
2019-03-22T04:47:55.446Z,5.70
2019-03-22T04:48:55.545Z,6.40
2019-03-22T04:49:55.626Z,8.00
2019-03-22T04:50:55.702Z,6.10
2019-03-22T04:51:55.797Z,7.10
2019-03-22T04:52:55.885Z,5.90
2019-03-22T04:53:55.977Z,5.80
2019-03-22T04:54:56.065Z,6.70
2019-03-22T04:55:56.153Z,7.50
2019-03-22T04:56:56.229Z,7.90
2019-03-22T04:57:56.337Z,5.60
2019-03-22T04:58:56.425Z,8.10
2019-03-22T04:59:56.576Z,7.00
2019-03-22T05:00:56.605Z,6.50
2019-03-22T05:01:56.699Z,5.90
2019-03-22T05:02:56.793Z,6.70
2019-03-22T05:03:59.080Z,6.30
2019-03-22T05:04:56.978Z,6.10
2019-03-22T05:05:57.086Z,8.10
2019-03-22T05:06:57.148Z,5.70
2019-03-22T05:07:57.246Z,5.90
2019-03-22T05:08:57.318Z,7.50
2019-03-22T05:09:57.404Z,9.20
2019-03-22T05:10:57.497Z,7.10
2019-03-22T05:11:57.588Z,5.80
2019-03-22T05:12:57.674Z,7.40
2019-03-22T05:13:57.763Z,6.40
2019-03-22T05:14:57.863Z,7.20
2019-03-22T05:15:57.953Z,6.20
2019-03-22T05:16:58.038Z,8.00
2019-03-22T05:17:58.124Z,7.40
2019-03-22T05:18:58.219Z,8.10
2019-03-22T05:19:58.300Z,6.30
2019-03-22T05:20:58.392Z,6.30
2019-03-22T05:21:58.471Z,6.80
2019-03-22T05:24:41.088Z,6.50
2019-03-22T05:25:41.174Z,8.70
2019-03-22T05:26:41.261Z,6.10
2019-03-22T05:27:41.348Z,6.40
2019-03-22T05:28:41.439Z,7.80
2019-03-22T05:29:41.532Z,8.10
2019-03-22T05:30:41.615Z,5.90
2019-03-22T05:31:41.759Z,6.70
2019-03-22T05:32:41.828Z,6.70
2019-03-22T05:33:41.932Z,7.30
2019-03-22T05:34:42.019Z,7.50
2019-03-22T05:35:42.106Z,6.90
2019-03-22T05:36:42.199Z,6.90
2019-03-22T05:37:42.286Z,7.50
2019-03-22T05:38:42.374Z,7.40
2019-03-22T05:39:42.460Z,7.60
2019-03-22T05:40:42.548Z,7.40
2019-03-22T05:41:42.636Z,6.80
2019-03-22T05:42:42.724Z,6.80
2019-03-22T05:43:42.814Z,8.50
2019-03-22T05:44:42.906Z,8.20
2019-03-22T05:45:42.991Z,6.60
2019-03-22T05:46:43.386Z,8.60
2019-03-22T05:47:43.703Z,6.90
2019-03-22T05:48:43.554Z,7.20
2019-03-22T05:49:44.465Z,7.20
2019-03-22T05:50:44.477Z,7.40
2019-03-22T05:51:43.697Z,7.90
2019-03-22T05:52:43.783Z,6.80
2019-03-22T05:53:44.080Z,6.30
2019-03-22T05:54:43.966Z,6.60
2019-03-22T05:55:44.343Z,7.90
2019-03-22T05:56:44.186Z,7.40
2019-03-22T05:57:44.222Z,8.70
2019-03-22T05:58:44.184Z,8.30
2019-03-22T05:59:44.268Z,8.30
2019-03-22T06:00:44.358Z,7.90
2019-03-22T06:01:45.503Z,7.30
2019-03-22T06:02:44.531Z,9.10
2019-03-22T06:03:45.077Z,8.90
2019-03-22T06:04:44.663Z,6.90
2019-03-22T06:05:44.754Z,8.50
2019-03-22T06:06:44.841Z,6.80
2019-03-22T06:07:44.929Z,8.00
2019-03-22T06:08:45.022Z,6.70
2019-03-22T06:09:45.536Z,9.00
2019-03-22T06:10:45.238Z,7.80
2019-03-22T06:11:45.323Z,10.90
2019-03-22T06:12:45.411Z,8.10
2019-03-22T06:13:45.500Z,8.30
2019-03-22T06:14:45.590Z,8.10
2019-03-22T06:15:45.679Z,8.40
2019-03-22T06:16:45.763Z,8.10
2019-03-22T06:17:51.521Z,8.00
2019-03-22T06:18:45.922Z,8.90
2019-03-22T06:19:46.013Z,8.40
2019-03-22T06:20:46.101Z,7.90
2019-03-22T06:21:46.187Z,8.60
2019-03-22T06:22:46.266Z,8.60
2019-03-22T06:23:46.354Z,8.80
2019-03-22T06:24:46.445Z,10.60
2019-03-22T06:25:46.532Z,8.80
2019-03-22T06:26:46.622Z,8.60
2019-03-22T06:27:46.709Z,8.50
2019-03-22T06:28:46.806Z,8.90
2019-03-22T06:29:54.246Z,9.60
2019-03-22T06:30:46.987Z,7.60
2019-03-22T06:31:47.100Z,7.50
2019-03-22T06:32:47.196Z,7.80
2019-03-22T06:33:47.286Z,7.80
2019-03-22T06:34:47.372Z,8.10
2019-03-22T06:35:47.459Z,7.20
2019-03-22T06:36:47.551Z,6.90
2019-03-22T06:37:47.637Z,10.00
2019-03-22T06:38:47.727Z,7.30
2019-03-22T06:39:47.815Z,7.30
2019-03-22T06:40:47.919Z,8.80
2019-03-22T06:41:47.995Z,8.40
2019-03-22T06:42:48.084Z,8.60
2019-03-22T06:43:48.175Z,7.60
2019-03-22T06:44:48.262Z,8.00
2019-03-22T06:45:48.412Z,8.20
2019-03-22T06:46:48.442Z,8.60
2019-03-22T06:47:48.536Z,9.70
2019-03-22T06:48:48.624Z,9.70
2019-03-22T06:49:48.710Z,8.10
2019-03-22T06:50:48.799Z,7.20
2019-03-22T06:51:48.890Z,8.40
2019-03-22T06:52:48.983Z,7.70
2019-03-22T06:53:49.086Z,7.10
2019-03-22T06:54:49.165Z,8.70
2019-03-22T06:55:49.254Z,7.20
2019-03-22T06:56:49.343Z,7.70
2019-03-22T06:57:49.434Z,7.20
2019-03-22T06:58:49.529Z,9.20
2019-03-22T06:59:49.618Z,8.80
2019-03-22T07:00:49.705Z,7.80
2019-03-22T07:01:49.796Z,7.10
2019-03-22T07:02:49.887Z,9.20
2019-03-22T07:03:49.989Z,9.50
2019-03-22T07:04:50.075Z,7.20
2019-03-22T07:05:50.166Z,9.00
2019-03-22T07:06:50.256Z,9.30
2019-03-22T07:07:50.345Z,10.00
2019-03-22T07:08:50.435Z,8.00
2019-03-22T07:09:50.554Z,8.40
2019-03-22T07:10:50.611Z,9.10
2019-03-22T07:11:50.699Z,8.40
2019-03-22T07:12:50.789Z,8.90
2019-03-22T07:13:50.883Z,7.40
2019-03-22T07:14:50.998Z,10.50
2019-03-22T07:15:51.063Z,7.30
2019-03-22T07:16:51.158Z,9.00
2019-03-22T07:17:51.245Z,7.60
2019-03-22T07:18:51.345Z,8.50
2019-03-22T07:19:51.435Z,10.20
2019-03-22T07:20:51.529Z,9.10
2019-03-22T07:21:51.617Z,8.60
2019-03-22T07:22:51.713Z,8.30
2019-03-22T07:23:51.801Z,7.30
2019-03-22T07:24:51.931Z,10.70
2019-03-22T07:25:51.976Z,9.40
2019-03-22T07:26:52.064Z,7.50
2019-03-22T07:27:52.157Z,9.00
2019-03-22T07:28:52.245Z,9.70
2019-03-22T07:29:52.336Z,9.00
2019-03-22T07:30:52.428Z,8.60
2019-03-22T07:31:52.509Z,8.30
2019-03-22T07:32:52.613Z,9.80
2019-03-22T07:33:52.703Z,10.20
2019-03-22T07:34:52.792Z,11.00
2019-03-22T07:35:52.887Z,12.40
2019-03-22T07:36:52.975Z,10.30
2019-03-22T07:37:53.079Z,8.80
2019-03-22T07:38:53.182Z,8.40
2019-03-22T07:39:53.274Z,8.40
2019-03-22T07:40:53.363Z,9.60
2019-03-22T07:41:53.473Z,9.50
2019-03-22T07:42:53.548Z,8.20
2019-03-22T07:43:53.636Z,9.70
2019-03-22T07:44:53.726Z,11.10
2019-03-22T07:45:53.830Z,8.70
2019-03-22T07:46:53.906Z,8.60
2019-03-22T07:47:55.893Z,8.70
2019-03-22T07:48:54.083Z,9.00
2019-03-22T07:49:54.173Z,9.40
2019-03-22T07:50:54.267Z,10.40
2019-03-22T07:51:54.349Z,11.50
2019-03-22T07:52:54.445Z,9.20
2019-03-22T07:53:54.535Z,9.20
2019-03-22T07:54:54.626Z,9.50
2019-03-22T07:55:54.763Z,10.30
2019-03-22T07:56:54.819Z,9.30
2019-03-22T07:57:54.910Z,11.40
2019-03-22T07:58:55.010Z,9.50
2019-03-22T07:59:55.091Z,9.80
2019-03-22T08:00:55.186Z,10.20
2019-03-22T08:01:55.280Z,11.50
2019-03-22T08:02:55.369Z,12.90
2019-03-22T08:03:55.456Z,9.90
2019-03-22T08:05:04.745Z,10.70
2019-03-22T08:05:55.704Z,9.60
2019-03-22T08:06:55.923Z,9.30
2019-03-22T08:07:56.189Z,10.50
2019-03-22T08:08:55.959Z,9.80
2019-03-22T08:09:55.963Z,12.50
2019-03-22T08:10:55.949Z,14.70
2019-03-22T08:11:56.029Z,14.10
2019-03-22T08:12:56.150Z,12.50
2019-03-22T08:13:56.204Z,10.90
2019-03-22T08:14:56.284Z,12.90
2019-03-22T08:15:57.536Z,12.90
2019-03-22T08:16:56.462Z,14.40
2019-03-22T08:17:57.263Z,13.00
2019-03-22T08:18:56.636Z,13.00
2019-03-22T08:19:57.347Z,14.30
2019-03-22T08:20:56.872Z,17.70
2019-03-22T08:21:56.941Z,13.60
2019-03-22T08:22:57.135Z,13.20
2019-03-22T08:23:57.192Z,15.60
2019-03-22T08:24:57.182Z,11.50
2019-03-22T08:25:57.326Z,14.10
2019-03-22T08:26:57.348Z,13.60
2019-03-22T08:27:57.437Z,14.60
2019-03-22T08:30:42.006Z,11.90
2019-03-22T08:31:29.511Z,13.10
2019-03-22T08:32:29.603Z,12.60
2019-03-22T08:33:29.706Z,14.00
2019-03-22T08:34:29.784Z,13.30
2019-03-22T08:35:29.887Z,14.00
2019-03-22T08:36:29.978Z,12.20
2019-03-22T08:37:30.061Z,13.40
2019-03-22T08:38:30.155Z,13.20
2019-03-22T08:39:30.265Z,14.20
2019-03-22T08:40:30.340Z,13.90
2019-03-22T08:41:30.429Z,11.50
2019-03-22T08:42:30.522Z,14.50
2019-03-22T08:43:30.654Z,12.50
2019-03-22T08:44:30.705Z,12.80
2019-03-22T08:45:30.796Z,13.50
2019-03-22T08:46:30.891Z,11.80
2019-03-22T08:47:34.358Z,11.70
2019-03-22T08:48:31.096Z,15.90
2019-03-22T08:49:31.291Z,14.20
2019-03-22T08:50:31.281Z,12.80
2019-03-22T08:51:31.360Z,12.10
2019-03-22T08:52:31.448Z,12.80
2019-03-22T08:53:31.541Z,13.80
2019-03-22T08:54:31.634Z,12.10
2019-03-22T08:55:31.773Z,13.30
2019-03-22T08:56:31.868Z,13.20
2019-03-22T08:57:31.922Z,14.50
2019-03-22T08:58:32.013Z,12.70
2019-03-22T08:59:32.106Z,14.60
2019-03-22T09:00:39.203Z,14.30
2019-03-22T09:01:32.287Z,13.10
2019-03-22T09:02:32.402Z,11.20
2019-03-22T09:03:32.466Z,14.50
2019-03-22T09:04:32.576Z,12.90
2019-03-22T09:05:32.674Z,16.20
2019-03-22T09:06:32.762Z,14.80
2019-03-22T09:07:32.848Z,15.50
2019-03-22T09:08:32.937Z,12.90
2019-03-22T09:09:41.473Z,11.80
2019-03-22T09:10:33.133Z,12.40
2019-03-22T09:11:33.235Z,14.50
2019-03-22T09:12:33.367Z,13.80
2019-03-22T09:13:33.450Z,13.90
2019-03-22T09:14:33.512Z,12.90
2019-03-22T09:15:40.979Z,16.40
2019-03-22T09:16:33.696Z,14.80
2019-03-22T09:17:33.789Z,12.30
2019-03-22T09:18:33.883Z,14.30
2019-03-22T09:19:33.988Z,14.70
2019-03-22T09:20:34.068Z,13.60
2019-03-22T09:21:34.210Z,14.40
2019-03-22T09:22:34.338Z,15.20
2019-03-22T09:23:34.370Z,13.80
2019-03-22T09:24:39.459Z,14.30
2019-03-22T09:25:34.553Z,13.80
2019-03-22T09:26:46.824Z,13.30
2019-03-22T09:27:36.533Z,13.10
2019-03-22T09:28:34.830Z,14.30
2019-03-22T09:29:34.927Z,13.60
2019-03-22T09:30:35.028Z,12.20
2019-03-22T09:31:35.125Z,13.70
2019-03-22T09:32:35.216Z,13.60
2019-03-22T09:33:35.306Z,13.50
2019-03-22T09:34:35.410Z,13.30
2019-03-22T09:35:35.529Z,15.00
2019-03-22T09:36:35.647Z,14.20
2019-03-22T09:37:35.689Z,12.80
2019-03-22T09:38:35.823Z,13.00
2019-03-22T09:39:35.901Z,13.70
2019-03-22T09:40:35.969Z,12.60
2019-03-22T09:41:36.095Z,13.20
2019-03-22T09:42:36.154Z,12.10
2019-03-22T09:43:36.253Z,11.60
2019-03-22T09:44:43.283Z,12.50
2019-03-22T09:45:36.488Z,11.70
2019-03-22T09:46:36.531Z,13.70
2019-03-22T09:47:36.627Z,12.80
2019-03-22T09:48:36.717Z,13.90
2019-03-22T09:49:36.810Z,12.00
2019-03-22T09:50:36.902Z,12.40
2019-03-22T09:51:37.009Z,13.90
2019-03-22T09:52:37.117Z,12.80
2019-03-22T09:53:37.187Z,13.00
2019-03-22T09:54:37.333Z,13.40
2019-03-22T09:55:37.378Z,13.20
2019-03-22T09:56:46.804Z,13.00
2019-03-22T09:57:37.561Z,14.00
2019-03-22T09:58:37.674Z,11.70
2019-03-22T09:59:37.777Z,10.90
2019-03-22T10:00:37.859Z,13.10
2019-03-22T10:01:37.958Z,13.90
2019-03-22T10:02:38.076Z,12.00
2019-03-22T10:03:38.138Z,12.50
2019-03-22T10:04:38.247Z,13.10
2019-03-22T10:05:38.360Z,11.10
2019-03-22T10:06:38.420Z,12.50
2019-03-22T10:07:38.556Z,11.60
2019-03-22T10:08:38.671Z,13.90
2019-03-22T10:09:38.704Z,13.90
2019-03-22T10:10:38.798Z,11.60
2019-03-22T10:11:38.954Z,11.90
2019-03-22T10:12:39.009Z,10.50
2019-03-22T10:13:39.079Z,12.00
2019-03-22T10:14:39.227Z,11.90
2019-03-22T10:15:39.331Z,14.80
2019-03-22T10:16:39.395Z,12.10
2019-03-22T10:17:39.501Z,14.20
2019-03-22T10:18:39.577Z,10.90
2019-03-22T10:19:42.052Z,10.00
2019-03-22T10:20:39.769Z,12.90
2019-03-22T10:21:39.916Z,11.80
2019-03-22T10:22:39.966Z,11.90
2019-03-22T10:23:40.051Z,12.90
2019-03-22T10:24:40.148Z,13.00
2019-03-22T10:25:40.300Z,11.80
2019-03-22T10:26:40.338Z,11.30
2019-03-22T10:27:40.495Z,12.30
2019-03-22T10:28:40.524Z,14.00
2019-03-22T10:29:40.618Z,15.40
2019-03-22T10:30:40.724Z,12.70
2019-03-22T10:31:40.821Z,11.00
2019-03-22T10:32:40.949Z,10.90
2019-03-22T10:33:41.014Z,11.60
2019-03-22T10:34:41.131Z,10.80
2019-03-22T10:35:41.254Z,10.20
2019-03-22T10:36:41.317Z,11.40
2019-03-22T10:37:41.428Z,13.00
2019-03-22T10:38:41.505Z,12.60
2019-03-22T10:39:41.602Z,13.40
2019-03-22T10:40:41.687Z,12.70
2019-03-22T10:41:41.787Z,12.10
2019-03-22T10:42:41.882Z,11.80
2019-03-22T10:43:42.064Z,12.00
2019-03-22T10:44:42.095Z,11.10
2019-03-22T10:45:42.161Z,10.90
2019-03-22T10:46:42.267Z,11.30
2019-03-22T10:47:42.358Z,11.70
2019-03-22T10:48:42.483Z,10.00
2019-03-22T10:49:42.558Z,10.40
2019-03-22T10:50:42.649Z,10.50
2019-03-22T10:51:55.797Z,9.40
2019-03-22T10:52:42.836Z,10.90
2019-03-22T10:53:42.947Z,11.00
2019-03-22T10:54:43.031Z,10.60
2019-03-22T10:55:43.131Z,11.50
2019-03-22T10:56:43.211Z,12.10
2019-03-22T10:57:43.314Z,10.40
2019-03-22T10:58:43.401Z,11.50
2019-03-22T10:59:43.525Z,9.90
2019-03-22T11:00:43.577Z,11.10
2019-03-22T11:01:57.431Z,11.40
2019-03-22T11:02:43.769Z,10.60
2019-03-22T11:03:43.882Z,10.60
2019-03-22T11:04:43.965Z,10.60
2019-03-22T11:05:44.067Z,9.30
2019-03-22T11:06:44.178Z,9.70
2019-03-22T11:07:44.273Z,10.90
2019-03-22T11:08:44.370Z,12.10
2019-03-22T11:09:44.462Z,9.60
2019-03-22T11:10:44.559Z,10.70
2019-03-22T11:11:44.718Z,10.00
2019-03-22T11:12:44.751Z,10.50
2019-03-22T11:13:44.848Z,8.50
2019-03-22T11:14:45.767Z,13.40
2019-03-22T11:15:48.777Z,11.90
2019-03-22T11:16:45.168Z,12.60
2019-03-22T11:17:45.303Z,9.80
2019-03-22T11:18:45.399Z,9.60
2019-03-22T11:19:45.496Z,10.90
2019-03-22T11:20:45.832Z,10.30
2019-03-22T11:21:45.689Z,11.40
2019-03-22T11:22:45.785Z,11.40
2019-03-22T11:23:45.882Z,10.70
2019-03-22T11:24:45.979Z,13.30
2019-03-22T11:25:46.075Z,10.10
2019-03-22T11:26:46.175Z,9.10
2019-03-22T11:27:46.275Z,9.10
2019-03-22T11:28:46.377Z,10.30
2019-03-22T11:29:46.472Z,9.20
2019-03-22T11:30:46.566Z,9.50
2019-03-22T11:31:46.663Z,9.80
2019-03-22T11:32:46.761Z,9.80
2019-03-22T11:33:46.859Z,12.30
2019-03-22T11:34:46.951Z,10.90
2019-03-22T11:35:47.040Z,10.70
2019-03-22T11:36:47.126Z,10.20
2019-03-22T11:37:47.218Z,9.60
2019-03-22T11:38:47.320Z,11.80
2019-03-22T11:39:47.414Z,10.00
2019-03-22T11:40:47.570Z,8.80
2019-03-22T11:41:47.609Z,10.50
2019-03-22T11:42:47.712Z,8.40
2019-03-22T11:43:47.807Z,10.40
2019-03-22T11:44:47.904Z,8.90
2019-03-22T11:45:48.002Z,9.40
2019-03-22T11:46:48.102Z,10.70
2019-03-22T11:47:48.187Z,10.70
2019-03-22T11:48:48.285Z,9.40
2019-03-22T11:49:48.387Z,8.40
2019-03-22T11:50:48.481Z,8.90
2019-03-22T11:51:48.578Z,8.10
2019-03-22T11:52:48.673Z,8.20
2019-03-22T11:53:48.773Z,10.10
2019-03-22T11:54:48.869Z,8.50
2019-03-22T11:55:49.013Z,8.10
2019-03-22T11:56:49.070Z,9.20
2019-03-22T11:57:49.163Z,10.40
2019-03-22T11:58:49.261Z,10.00
2019-03-22T11:59:49.359Z,9.80
2019-03-22T12:00:49.473Z,8.20
2019-03-22T12:01:49.573Z,8.60
2019-03-22T12:02:49.671Z,12.20
2019-03-22T12:03:49.768Z,8.60
2019-03-22T12:04:49.867Z,10.20
2019-03-22T12:05:49.965Z,10.40
2019-03-22T12:06:50.063Z,8.00
2019-03-22T12:07:50.160Z,9.10
2019-03-22T12:08:50.304Z,8.90
2019-03-22T12:09:50.355Z,9.90
2019-03-22T12:10:50.452Z,10.00
2019-03-22T12:11:50.550Z,8.80
2019-03-22T12:12:50.652Z,7.80
2019-03-22T12:13:50.879Z,6.60
2019-03-22T12:14:50.855Z,6.00
2019-03-22T12:15:50.961Z,7.30
2019-03-22T12:16:51.058Z,8.20
2019-03-22T12:17:51.169Z,7.40
2019-03-22T12:18:51.255Z,6.20
2019-03-22T12:19:51.356Z,6.70
2019-03-22T12:20:51.456Z,6.00
2019-03-22T12:21:51.557Z,7.30
2019-03-22T12:22:51.661Z,8.40
2019-03-22T12:23:51.765Z,6.40
2019-03-22T12:24:51.864Z,6.90
2019-03-22T12:25:51.964Z,6.20
2019-03-22T12:26:52.087Z,7.20
2019-03-22T12:27:52.158Z,8.70
2019-03-22T12:28:52.264Z,7.80
2019-03-22T12:29:53.438Z,7.30
2019-03-22T12:30:52.457Z,7.50
2019-03-22T12:31:52.553Z,7.50
2019-03-22T12:32:52.651Z,7.50
2019-03-22T12:33:52.754Z,7.50
2019-03-22T12:34:52.853Z,10.00
2019-03-22T12:35:52.978Z,8.30
2019-03-22T12:36:53.052Z,9.10
2019-03-22T12:37:53.158Z,8.40
2019-03-22T12:38:53.263Z,10.90
2019-03-22T12:39:53.359Z,11.00
2019-03-22T12:40:53.459Z,9.40
2019-03-22T12:41:53.556Z,8.10
2019-03-22T12:42:53.689Z,8.80
2019-03-22T12:43:53.750Z,8.30
2019-03-22T12:44:53.855Z,9.30
2019-03-22T12:45:53.956Z,8.30
2019-03-22T12:46:54.050Z,8.00
2019-03-22T12:47:54.154Z,8.00
2019-03-22T12:48:54.267Z,9.10
2019-03-22T12:49:54.363Z,8.20
2019-03-22T12:50:54.463Z,8.40
2019-03-22T12:51:54.562Z,7.50
2019-03-22T12:52:54.660Z,8.80
2019-03-22T12:53:54.762Z,8.70
2019-03-22T12:54:54.855Z,8.80
2019-03-22T12:55:54.952Z,6.90
2019-03-22T12:56:55.049Z,7.00
2019-03-22T12:57:55.142Z,5.20
2019-03-22T12:58:55.245Z,6.50
2019-03-22T12:59:55.339Z,5.30
2019-03-22T13:00:55.439Z,6.30
2019-03-22T13:01:55.535Z,5.10
2019-03-22T13:02:55.624Z,5.10
2019-03-22T13:03:55.723Z,8.30
2019-03-22T13:04:55.821Z,6.00
2019-03-22T13:05:55.924Z,7.30
2019-03-22T13:06:56.016Z,7.50
2019-03-22T13:07:56.115Z,7.50
2019-03-22T13:08:56.212Z,9.00
2019-03-22T13:09:56.309Z,7.10
2019-03-22T13:10:56.409Z,7.40
2019-03-22T13:11:56.509Z,7.20
2019-03-22T13:12:56.601Z,7.60
2019-03-22T13:13:56.701Z,7.20
2019-03-22T13:14:56.831Z,8.20
2019-03-22T13:15:56.908Z,7.20
2019-03-22T13:16:57.004Z,7.00